Time;durP1;ratioP1;P1;durP2;ratioP2;P2;SDS_P1;SDS_P2;PMS_P1;PMS_P2;Temp;Humidity;BMP_temperature;BMP_pressure;BME280_temperature;BME280_humidity;BME280_pressure;Samples;Min_cycle;Max_cycle;Signal;HPM_P1;HPM_P2
2023/10/06 00:02:08;;;;;;;;;;;;;;;;;;4966591;28;20012;-91
2023/10/06 00:04:38;;;;;;;;;;;;;;;;;;4958716;28;20337;-90
2023/10/06 00:07:07;;;;;;;;;;;;;;;;;;4965016;28;20349;-93
2023/10/06 00:09:33;;;;;;;;;;;;;;;;;;4965468;28;20443;-91
2023/10/06 00:11:59;;;;;;;;;;;;;;;;;;4965164;28;19929;-81
2023/10/06 00:14:41;;;;;;;;;;;;;;;;;;4962355;28;19926;-83
2023/10/06 00:17:11;;;;;;;;;;;;;;;;;;4983963;28;20450;-88
2023/10/06 00:19:38;;;;;;;;;;;;;;;;;;4968737;28;19937;-89
2023/10/06 00:24:42;;;;;;;;;;;;;;;;;;4989835;28;19932;-85
2023/10/06 00:27:11;;;;;;;;;;;;;;;;;;4981666;28;20369;-86
2023/10/06 00:29:37;;;;;;;;;;;;;;;;;;4984443;28;19921;-82
2023/10/06 00:32:21;;;;;;;;;;;;;;;;;;4965751;28;19928;-80
2023/10/06 00:34:47;;;;;;;;;;;;;;;;;;4982819;28;19921;-88
2023/10/06 00:37:14;;;;;;;;;;;;;;;;;;4983796;28;20008;-88
2023/10/06 00:39:40;;;;;;;;;;;;;;;;;;4964381;28;19932;-92
2023/10/06 00:42:06;;;;;;;;;;;;;;;;;;4983510;28;19925;-89
2023/10/06 00:44:32;;;;;;;;;;;;;;;;;;4983009;28;19969;-84
2023/10/06 00:46:59;;;;;;;;;;;;;;;;;;4981819;28;19961;-85
2023/10/06 00:49:25;;;;;;;;;;;;;;;;;;4982974;28;19929;-90
2023/10/06 00:51:53;;;;;;;;;;;;;;;;;;4983410;28;19968;-81
2023/10/06 00:54:19;;;;;;;;;;;;;;;;;;4963088;28;19926;-85
2023/10/06 00:56:46;;;;;;;;;;;;;;;;;;4946490;28;19932;-88
2023/10/06 00:59:12;;;;;;;;;;;;;;;;;;4965388;28;20246;-82
2023/10/06 01:01:38;;;;;;;;;;;;;;;;;;4981174;28;19933;-89
2023/10/06 01:04:11;;;;;;;;;;;;;;;;;;4964494;28;19926;-81
2023/10/06 01:06:39;;;;;;;;;;;;;;;;;;4980714;28;19933;-83
2023/10/06 01:11:38;;;;;;;;;;;;;;;;;;4982546;28;20511;-86
2023/10/06 01:14:04;;;;;;;;;;;;;;;;;;4964711;28;19930;-84
2023/10/06 01:16:34;;;;;;;;;;;;;;;;;;4964095;28;19926;-86
2023/10/06 01:19:14;;;;;;;;;;;;;;;;;;4962343;28;19922;-91
2023/10/06 01:21:40;;;;;;;;;;;;;;;;;;4965689;28;20281;-91
2023/10/06 01:24:12;;;;;;;;;;;;;;;;;;4965648;28;19961;-91
2023/10/06 01:26:41;;;;;;;;;;;;;;;;;;4964221;28;19930;-90
2023/10/06 01:29:10;;;;;;;;;;;;;;;;;;4966579;28;19926;-87
2023/10/06 01:31:39;;;;;;;;;;;;;;;;;;4963801;28;19922;-82
2023/10/06 01:34:07;;;;;;;;;;;;;;;;;;4978500;28;19964;-88
2023/10/06 01:36:33;;;;;;;;;;;;;;;;;;4981015;28;20027;-90
2023/10/06 01:39:04;;;;;;;;;;;;;;;;;;4983400;28;19936;-90
2023/10/06 01:41:33;;;;;;;;;;;;;;;;;;4964807;28;19925;-92
2023/10/06 01:44:00;;;;;;;;;;;;;;;;;;4981415;28;19921;-76
2023/10/06 01:46:26;;;;;;;;;;;;;;;;;;4962773;28;19926;-87
2023/10/06 01:48:52;;;;;;;;;;;;;;;;;;4982320;28;19936;-89
2023/10/06 01:51:19;;;;;;;;;;;;;;;;;;4969431;28;19925;-85
2023/10/06 01:53:45;;;;;;;;;;;;;;;;;;4984332;28;19933;-88
2023/10/06 01:56:14;;;;;;;;;;;;;;;;;;4985680;28;19932;-88
2023/10/06 01:58:39;;;;;;;;;;;;;;;;;;4983847;28;19930;-89
2023/10/06 02:01:09;;;;;;;;;;;;;;;;;;4984897;28;19968;-91
2023/10/06 02:03:38;;;;;;;;;;;;;;;;;;4984737;28;19932;-88
2023/10/06 02:06:13;;;;;;;;;;;;;;;;;;4983977;28;19976;-78
2023/10/06 02:08:39;;;;;;;;;;;;;;;;;;4984577;28;20443;-83
2023/10/06 02:11:05;;;;;;;;;;;;;;;;;;4983844;28;20432;-86
2023/10/06 02:13:31;;;;;;;;;;;;;;;;;;4982456;28;19964;-90
2023/10/06 02:15:58;;;;;;;;;;;;;;;;;;4981050;28;19968;-86
2023/10/06 02:18:25;;;;;;;;;;;;;;;;;;5000556;28;20342;-86
2023/10/06 02:20:51;;;;;;;;;;;;;;;;;;4993284;28;19929;-84
2023/10/06 02:23:17;;;;;;;;;;;;;;;;;;4989704;28;20013;-84
2023/10/06 02:25:43;;;;;;;;;;;;;;;;;;4985109;28;19926;-84
2023/10/06 02:28:09;;;;;;;;;;;;;;;;;;4985682;28;20289;-81
2023/10/06 02:30:37;;;;;;;;;;;;;;;;;;4965689;28;20373;-91
2023/10/06 02:33:04;;;;;;;;;;;;;;;;;;4984714;28;20451;-91
2023/10/06 02:35:30;;;;;;;;;;;;;;;;;;4983579;28;20276;-85
2023/10/06 02:37:57;;;;;;;;;;;;;;;;;;4943136;28;19922;-82
2023/10/06 02:40:29;;;;;;;;;;;;;;;;;;4965203;28;20336;-91
2023/10/06 02:42:56;;;;;;;;;;;;;;;;;;4984657;28;19925;-89
2023/10/06 02:45:22;;;;;;;;;;;;;;;;;;4983402;28;19921;-92
2023/10/06 02:47:48;;;;;;;;;;;;;;;;;;4967252;28;20294;-90
2023/10/06 02:50:20;;;;;;;;;;;;;;;;;;4983175;28;19932;-92
2023/10/06 02:52:53;;;;;;;;;;;;;;;;;;4966770;28;19928;-83
2023/10/06 02:55:19;;;;;;;;;;;;;;;;;;4967549;28;19926;-81
2023/10/06 02:57:50;;;;;;;;;;;;;;;;;;4965905;28;19968;-87
2023/10/06 03:02:55;;;;;;;;;;;;;;;;;;4965439;28;19945;-81
2023/10/06 03:05:25;;;;;;;;;;;;;;;;;;4967670;28;19925;-91
2023/10/06 03:07:52;;;;;;;;;;;;;;;;;;4964584;28;20419;-80
2023/10/06 03:10:18;;;;;;;;;;;;;;;;;;4967300;28;19968;-89
2023/10/06 03:12:45;;;;;;;;;;;;;;;;;;4967537;28;20408;-85
2023/10/06 03:17:55;;;;;;;;;;;;;;;;;;4962446;28;19922;-91
2023/10/06 03:20:27;;;;;;;;;;;;;;;;;;4964435;28;19926;-86
2023/10/06 03:22:55;;;;;;;;;;;;;;;;;;4962632;28;19922;-92
2023/10/06 03:25:22;;;;;;;;;;;;;;;;;;4984808;28;20602;-82
2023/10/06 03:27:52;;;;;;;;;;;;;;;;;;4966952;28;19929;-92
2023/10/06 03:30:19;;;;;;;;;;;;;;;;;;4967544;28;20501;-83
2023/10/06 03:32:48;;;;;;;;;;;;;;;;;;4984043;28;19929;-85
2023/10/06 03:35:23;;;;;;;;;;;;;;;;;;4967664;28;19932;-91
2023/10/06 03:37:52;;;;;;;;;;;;;;;;;;4984059;28;19967;-85
2023/10/06 03:40:23;;;;;;;;;;;;;;;;;;4968718;28;19947;-87
2023/10/06 03:42:50;;;;;;;;;;;;;;;;;;4969309;28;20935;-80
2023/10/06 03:45:27;;;;;;;;;;;;;;;;;;4983202;28;20356;-85
2023/10/06 03:47:52;;;;;;;;;;;;;;;;;;4981713;28;19926;-83
2023/10/06 03:50:19;;;;;;;;;;;;;;;;;;4948087;28;19926;-82
2023/10/06 03:52:47;;;;;;;;;;;;;;;;;;4982655;28;19925;-80
2023/10/06 03:55:13;;;;;;;;;;;;;;;;;;4965818;28;20148;-83
2023/10/06 03:57:40;;;;;;;;;;;;;;;;;;4981242;28;19957;-89
2023/10/06 04:00:06;;;;;;;;;;;;;;;;;;4963263;28;19921;-88
2023/10/06 04:02:38;;;;;;;;;;;;;;;;;;4964984;28;19992;-78
2023/10/06 04:05:05;;;;;;;;;;;;;;;;;;4963133;28;20293;-80
2023/10/06 04:07:31;;;;;;;;;;;;;;;;;;4960744;28;20396;-91
2023/10/06 04:09:57;;;;;;;;;;;;;;;;;;4965518;28;19965;-85
2023/10/06 04:12:23;;;;;;;;;;;;;;;;;;4981020;28;19968;-89
2023/10/06 04:14:49;;;;;;;;;;;;;;;;;;4996949;28;19917;-86
2023/10/06 04:17:16;;;;;;;;;;;;;;;;;;4989593;28;19988;-80
2023/10/06 04:19:42;;;;;;;;;;;;;;;;;;4983166;28;19929;-81
2023/10/06 04:22:08;;;;;;;;;;;;;;;;;;4962302;28;19922;-88
2023/10/06 04:24:37;;;;;;;;;;;;;;;;;;4981950;28;19987;-86
2023/10/06 04:27:05;;;;;;;;;;;;;;;;;;4959233;28;19922;-83
2023/10/06 04:29:34;;;;;;;;;;;;;;;;;;4962424;28;20304;-89
2023/10/06 04:32:00;;;;;;;;;;;;;;;;;;4951434;28;20003;-81
2023/10/06 04:34:27;;;;;;;;;;;;;;;;;;4968422;28;19926;-85
2023/10/06 04:36:56;;;;;;;;;;;;;;;;;;4982184;28;19937;-91
2023/10/06 04:39:23;;;;;;;;;;;;;;;;;;4966482;28;19933;-91
2023/10/06 04:41:49;;;;;;;;;;;;;;;;;;4961956;28;19917;-89
2023/10/06 04:44:15;;;;;;;;;;;;;;;;;;4983847;28;19941;-91
2023/10/06 04:46:41;;;;;;;;;;;;;;;;;;4980301;28;20109;-89
2023/10/06 04:49:07;;;;;;;;;;;;;;;;;;4965361;28;19922;-82
2023/10/06 04:51:34;;;;;;;;;;;;;;;;;;4962355;28;20016;-89
2023/10/06 04:54:00;;;;;;;;;;;;;;;;;;4965672;28;20029;-91
2023/10/06 04:56:32;;;;;;;;;;;;;;;;;;4979683;28;19926;-86
2023/10/06 04:58:58;;;;;;;;;;;;;;;;;;4963297;28;20036;-84
2023/10/06 05:01:24;;;;;;;;;;;;;;;;;;4963714;28;19925;-91
2023/10/06 05:03:50;;;;;;;;;;;;;;;;;;4963035;28;19930;-90
2023/10/06 05:06:16;;;;;;;;;;;;;;;;;;4961356;28;19922;-85
2023/10/06 05:08:42;;;;;;;;;;;;;;;;;;4978643;28;20329;-88
2023/10/06 05:11:10;;;;;;;;;;;;;;;;;;4964243;28;19945;-85
2023/10/06 05:13:37;;;;;;;;;;;;;;;;;;4963335;28;19925;-89
2023/10/06 05:16:03;;;;;;;;;;;;;;;;;;4962208;28;19929;-90
2023/10/06 05:18:29;;;;;;;;;;;;;;;;;;4948187;28;19929;-91
2023/10/06 05:20:55;;;;;;;;;;;;;;;;;;4981232;28;19940;-90
2023/10/06 05:23:23;;;;;;;;;;;;;;;;;;4966264;28;19926;-91
2023/10/06 05:25:50;;;;;;;;;;;;;;;;;;4969081;28;19953;-89
2023/10/06 05:28:20;;;;;;;;;;;;;;;;;;4970148;28;20020;-81
2023/10/06 05:30:46;;;;;;;;;;;;;;;;;;4986102;28;20317;-85
2023/10/06 05:33:14;;;;;;;;;;;;;;;;;;4969822;28;19957;-89
2023/10/06 05:35:40;;;;;;;;;;;;;;;;;;4954432;28;19926;-92
2023/10/06 05:38:13;;;;;;;;;;;;;;;;;;4969605;28;20400;-79
2023/10/06 05:40:40;;;;;;;;;;;;;;;;;;4986054;28;20008;-83
2023/10/06 05:43:11;;;;;;;;;;;;;;;;;;4964445;28;19937;-84
2023/10/06 05:45:39;;;;;;;;;;;;;;;;;;4987132;28;19984;-87
2023/10/06 05:48:06;;;;;;;;;;;;;;;;;;4967323;28;21163;-90
2023/10/06 05:50:35;;;;;;;;;;;;;;;;;;4967954;28;19956;-91
2023/10/06 05:53:04;;;;;;;;;;;;;;;;;;4962619;28;20708;-80
2023/10/06 05:55:30;;;;;;;;;;;;;;;;;;4965009;28;20638;-85
2023/10/06 05:57:56;;;;;;;;;;;;;;;;;;4962800;28;19930;-87
2023/10/06 06:00:26;;;;;;;;;;;;;;;;;;4960658;28;19929;-86
2023/10/06 06:02:52;;;;;;;;;;;;;;;;;;4959804;28;20397;-87
2023/10/06 06:05:18;;;;;;;;;;;;;;;;;;4978487;28;19925;-86
2023/10/06 06:07:44;;;;;;;;;;;;;;;;;;4959260;28;20770;-87
2023/10/06 06:10:13;;;;;;;;;;;;;;;;;;4981845;28;19926;-88
2023/10/06 06:12:39;;;;;;;;;;;;;;;;;;4995236;28;19922;-82
2023/10/06 06:15:07;;;;;;;;;;;;;;;;;;4990971;28;19937;-87
2023/10/06 06:17:34;;;;;;;;;;;;;;;;;;4983045;28;19921;-85
2023/10/06 06:20:00;;;;;;;;;;;;;;;;;;4965735;28;20317;-88
2023/10/06 06:22:29;;;;;;;;;;;;;;;;;;4966393;28;19925;-85
2023/10/06 06:24:55;;;;;;;;;;;;;;;;;;4980052;28;19925;-78
2023/10/06 06:27:22;;;;;;;;;;;;;;;;;;4941747;28;20000;-87
2023/10/06 06:29:49;;;;;;;;;;;;;;;;;;4958207;28;19932;-88
2023/10/06 06:32:15;;;;;;;;;;;;;;;;;;4961883;28;19926;-87
2023/10/06 06:34:41;;;;;;;;;;;;;;;;;;4979135;28;19933;-91
2023/10/06 06:37:09;;;;;;;;;;;;;;;;;;4959850;28;19922;-86
2023/10/06 06:39:37;;;;;;;;;;;;;;;;;;4963325;28;20000;-82
2023/10/06 06:42:04;;;;;;;;;;;;;;;;;;4955531;28;19926;-88
2023/10/06 06:44:30;;;;;;;;;;;;;;;;;;4959020;28;19929;-81
2023/10/06 06:46:58;;;;;;;;;;;;;;;;;;4981317;28;19980;-89
2023/10/06 06:49:26;;;;;;;;;;;;;;;;;;4943100;28;19937;-86
2023/10/06 06:51:53;;;;;;;;;;;;;;;;;;4980100;28;19961;-88
2023/10/06 06:54:19;;;;;;;;;;;;;;;;;;4958088;28;19936;-90
2023/10/06 06:56:47;;;;;;;;;;;;;;;;;;4956389;28;19926;-85
2023/10/06 06:59:13;;;;;;;;;;;;;;;;;;4960636;28;19922;-82
2023/10/06 07:01:39;;;;;;;;;;;;;;;;;;4959549;28;20304;-88
2023/10/06 07:04:05;;;;;;;;;;;;;;;;;;4981498;28;20805;-86
2023/10/06 07:06:31;;;;;;;;;;;;;;;;;;4979514;28;19926;-92
2023/10/06 07:08:57;;;;;;;;;;;;;;;;;;4979330;28;19932;-82
2023/10/06 07:11:23;;;;;;;;;;;;;;;;;;4958563;28;20385;-86
2023/10/06 07:13:49;;;;;;;;;;;;;;;;;;4948193;28;19930;-79
2023/10/06 07:16:14;;;;;;;;;;;;;;;;;;4950440;28;20037;-88
2023/10/06 07:18:40;;;;;;;;;;;;;;;;;;4937897;28;19934;-88
2023/10/06 07:21:07;;;;;;;;;;;;;;;;;;4977416;28;19932;-86
2023/10/06 07:23:34;;;;;;;;;;;;;;;;;;4956841;28;19972;-85
2023/10/06 07:26:00;;;;;;;;;;;;;;;;;;4939337;28;20464;-87
2023/10/06 07:28:27;;;;;;;;;;;;;;;;;;4972657;28;19940;-81
2023/10/06 07:31:04;;;;;;;;;;;;;;;;;;4947096;28;20005;-82
2023/10/06 07:33:30;;;;;;;;;;;;;;;;;;4932585;28;20076;-83
2023/10/06 07:35:57;;;;;;;;;;;;;;;;;;4954997;28;19926;-81
2023/10/06 07:44:39;;;;;;;;;;;;;;;;;;4878701;29;20035;-81
2023/10/06 07:47:09;;;;;;;;;;;;;;;;;;4883478;29;19968;-90
2023/10/06 08:00:57;;;;;;;;;;;;;;;;;;4892731;29;19970;-89
2023/10/06 08:03:38;;;;;;;;;;;;;;;;;;4892290;29;19927;-92
2023/10/06 08:09:26;;;;;;;;;;;;;;;;;;4866490;29;19932;-87
2023/10/06 08:11:58;;;;;;;;;;;;;;;;;;4868024;29;19991;-91
2023/10/06 08:14:44;;;;;;;;;;;;;;;;;;4875753;29;19924;-92
2023/10/06 08:17:22;;;;;;;;;;;;;;;;;;4873349;29;20024;-86
2023/10/06 08:26:07;;;;;;;;;;;;;;;;;;4916230;28;19976;-94
2023/10/06 08:28:43;;;;;;;;;;;;;;;;;;;;;
2023/10/06 08:31:19;;;;;;;;;;;;;;;;;;4966741;28;19922;-87
2023/10/06 08:33:45;;;;;;;;;;;;;;;;;;4952763;28;19937;-87
2023/10/06 08:36:11;;;;;;;;;;;;;;;;;;4964384;28;19925;-85
2023/10/06 08:38:37;;;;;;;;;;;;;;;;;;4966187;28;19952;-86
2023/10/06 08:41:03;;;;;;;;;;;;;;;;;;4944912;28;19983;-91
2023/10/06 08:43:29;;;;;;;;;;;;;;;;;;4976362;28;20478;-86
2023/10/06 08:45:59;;;;;;;;;;;;;;;;;;4962289;28;19928;-88
2023/10/06 08:48:25;;;;;;;;;;;;;;;;;;4965798;28;19981;-86
2023/10/06 08:50:53;;;;;;;;;;;;;;;;;;4967777;28;19976;-89
2023/10/06 08:53:19;;;;;;;;;;;;;;;;;;4966261;28;19926;-82
2023/10/06 08:55:45;;;;;;;;;;;;;;;;;;4985013;28;19922;-87
2023/10/06 08:58:14;;;;;;;;;;;;;;;;;;4984993;28;19929;-86
2023/10/06 09:00:43;;;;;;;;;;;;;;;;;;4985410;28;20560;-88
2023/10/06 09:03:11;;;;;;;;;;;;;;;;;;4962567;28;20456;-84
2023/10/06 09:05:36;;;;;;;;;;;;;;;;;;4981884;28;20217;-83
2023/10/06 09:08:07;;;;;;;;;;;;;;;;;;4977924;28;20599;-89
2023/10/06 09:10:33;;;;;;;;;;;;;;;;;;4960670;28;19930;-82
2023/10/06 09:13:00;;;;;;;;;;;;;;;;;;4961936;28;19929;-86
2023/10/06 09:15:26;;;;;;;;;;;;;;;;;;4975812;28;19922;-89
2023/10/06 09:17:53;;;;;;;;;;;;;;;;;;4948224;28;19948;-81
2023/10/06 09:20:19;;;;;;;;;;;;;;;;;;4963258;28;19929;-84
2023/10/06 09:22:45;;;;;;;;;;;;;;;;;;4958936;28;20448;-81
2023/10/06 09:25:11;;;;;;;;;;;;;;;;;;4978759;28;19953;-84
2023/10/06 09:27:43;;;;;;;;;;;;;;;;;;4946866;28;20622;-86
2023/10/06 09:30:13;;;;;;;;;;;;;;;;;;4958947;28;20007;-88
2023/10/06 09:32:39;;;;;;;;;;;;;;;;;;4962519;28;19948;-85
2023/10/06 09:35:05;;;;;;;;;;;;;;;;;;4950805;28;20390;-83
2023/10/06 09:37:31;;;;;;;;;;;;;;;;;;4939952;28;19937;-83
2023/10/06 09:40:10;;;;;;;;;;;;;;;;;;4967780;28;19926;-87
2023/10/06 09:42:36;;;;;;;;;;;;;;;;;;4972990;28;19926;-83
2023/10/06 09:45:02;;;;;;;;;;;;;;;;;;4977806;28;20024;-85
2023/10/06 09:47:28;;;;;;;;;;;;;;;;;;4945707;28;20010;-89
2023/10/06 09:49:54;;;;;;;;;;;;;;;;;;4959408;28;20298;-89
2023/10/06 09:52:21;;;;;;;;;;;;;;;;;;4944510;28;20314;-90
2023/10/06 09:54:46;;;;;;;;;;;;;;;;;;4939246;28;19922;-84
2023/10/06 09:57:12;;;;;;;;;;;;;;;;;;4957864;28;20314;-87
2023/10/06 09:59:38;;;;;;;;;;;;;;;;;;4941281;28;19934;-88
2023/10/06 10:02:20;;;;;;;;;;;;;;;;;;4960653;28;20020;-84
2023/10/06 10:04:55;;;;;;;;;;;;;;;;;;4947100;28;20348;-93
2023/10/06 10:07:21;;;;;;;;;;;;;;;;;;4952148;28;19993;-90
2023/10/06 10:09:47;;;;;;;;;;;;;;;;;;4967500;28;19997;-93
2023/10/06 10:12:13;;;;;;;;;;;;;;;;;;4950890;28;19926;-92
2023/10/06 10:14:39;;;;;;;;;;;;;;;;;;4967447;28;20354;-92
2023/10/06 10:17:06;;;;;;;;;;;;;;;;;;4951591;28;19922;-93
2023/10/06 10:19:32;;;;;;;;;;;;;;;;;;4951620;28;19965;-92
2023/10/06 10:21:58;;;;;;;;;;;;;;;;;;4935509;28;19937;-92
2023/10/06 10:24:24;;;;;;;;;;;;;;;;;;4935332;28;19926;-88
2023/10/06 10:26:50;;;;;;;;;;;;;;;;;;4955402;28;19926;-89
2023/10/06 10:29:16;;;;;;;;;;;;;;;;;;4955584;28;19922;-82
2023/10/06 10:31:42;;;;;;;;;;;;;;;;;;4952636;28;20017;-79
2023/10/06 10:34:08;;;;;;;;;;;;;;;;;;4972977;28;19929;-83
2023/10/06 10:36:34;;;;;;;;;;;;;;;;;;4969016;28;19925;-94
2023/10/06 10:39:01;;;;;;;;;;;;;;;;;;4985029;28;19953;-92
2023/10/06 10:41:27;;;;;;;;;;;;;;;;;;4964253;28;19925;-94
2023/10/06 10:43:54;;;;;;;;;;;;;;;;;;4984824;28;19921;-87
2023/10/06 10:46:20;;;;;;;;;;;;;;;;;;4965117;28;20016;-91
2023/10/06 10:48:49;;;;;;;;;;;;;;;;;;4967663;28;20456;-92
2023/10/06 10:51:15;;;;;;;;;;;;;;;;;;4962152;28;19988;-82
2023/10/06 10:53:43;;;;;;;;;;;;;;;;;;4965629;28;19926;-87
2023/10/06 10:56:13;;;;;;;;;;;;;;;;;;4964354;28;19921;-80
2023/10/06 10:58:39;;;;;;;;;;;;;;;;;;4966534;28;19953;-85
2023/10/06 11:01:06;;;;;;;;;;;;;;;;;;4965280;28;19984;-83
2023/10/06 11:03:32;;;;;;;;;;;;;;;;;;4962604;28;20347;-91
2023/10/06 11:05:58;;;;;;;;;;;;;;;;;;4984706;28;20008;-90
2023/10/06 11:08:24;;;;;;;;;;;;;;;;;;4981773;28;19926;-90
2023/10/06 11:10:50;;;;;;;;;;;;;;;;;;4959058;28;19925;-89
2023/10/06 11:13:18;;;;;;;;;;;;;;;;;;4979382;28;19961;-86
2023/10/06 11:15:44;;;;;;;;;;;;;;;;;;4963602;28;19929;-91
2023/10/06 11:18:13;;;;;;;;;;;;;;;;;;4942772;28;20040;-80
2023/10/06 11:20:39;;;;;;;;;;;;;;;;;;4980305;28;20345;-91
2023/10/06 11:23:05;;;;;;;;;;;;;;;;;;4978005;28;20301;-87
2023/10/06 11:25:33;;;;;;;;;;;;;;;;;;4979439;28;19937;-82
2023/10/06 11:28:02;;;;;;;;;;;;;;;;;;4958069;28;19954;-79
2023/10/06 11:30:28;;;;;;;;;;;;;;;;;;4978851;28;19933;-87
2023/10/06 11:32:54;;;;;;;;;;;;;;;;;;4959915;28;19925;-86
2023/10/06 11:35:20;;;;;;;;;;;;;;;;;;4977879;28;19933;-92
2023/10/06 11:37:46;;;;;;;;;;;;;;;;;;4964879;28;20258;-88
2023/10/06 11:40:12;;;;;;;;;;;;;;;;;;4963040;28;20002;-87
2023/10/06 11:42:41;;;;;;;;;;;;;;;;;;4962927;28;19926;-88
2023/10/06 11:45:11;;;;;;;;;;;;;;;;;;4962624;28;19981;-89
2023/10/06 11:47:37;;;;;;;;;;;;;;;;;;4961734;28;19936;-83
2023/10/06 11:50:03;;;;;;;;;;;;;;;;;;4963497;28;19926;-89
2023/10/06 11:52:35;;;;;;;;;;;;;;;;;;4963349;28;19933;-88
2023/10/06 11:55:08;;;;;;;;;;;;;;;;;;4961049;28;19925;-89
2023/10/06 11:57:34;;;;;;;;;;;;;;;;;;4980452;28;20963;-86
2023/10/06 12:00:00;;;;;;;;;;;;;;;;;;4961953;28;19925;-91
2023/10/06 12:02:26;;;;;;;;;;;;;;;;;;4964079;28;20263;-91
2023/10/06 12:04:53;;;;;;;;;;;;;;;;;;4979733;28;19960;-84
2023/10/06 12:07:19;;;;;;;;;;;;;;;;;;4961726;28;19973;-87
2023/10/06 12:09:46;;;;;;;;;;;;;;;;;;4965134;28;20280;-81
2023/10/06 12:12:12;;;;;;;;;;;;;;;;;;4959898;28;19926;-91
2023/10/06 12:14:38;;;;;;;;;;;;;;;;;;4982491;28;19936;-83
2023/10/06 12:17:04;;;;;;;;;;;;;;;;;;4961982;28;19929;-86
2023/10/06 12:19:31;;;;;;;;;;;;;;;;;;4946693;28;19922;-88
2023/10/06 12:21:59;;;;;;;;;;;;;;;;;;4979192;28;19922;-80
2023/10/06 12:24:25;;;;;;;;;;;;;;;;;;4977251;28;19929;-92
2023/10/06 12:26:51;;;;;;;;;;;;;;;;;;4979726;28;19921;-83
2023/10/06 12:29:17;;;;;;;;;;;;;;;;;;4977637;28;19930;-82
2023/10/06 12:31:43;;;;;;;;;;;;;;;;;;4979907;28;19926;-84
2023/10/06 12:34:09;;;;;;;;;;;;;;;;;;4957737;28;21226;-88
2023/10/06 12:36:35;;;;;;;;;;;;;;;;;;4959197;28;19926;-87
2023/10/06 12:39:04;;;;;;;;;;;;;;;;;;4959901;28;19929;-90
2023/10/06 12:41:30;;;;;;;;;;;;;;;;;;4958841;28;19922;-91
2023/10/06 12:44:03;;;;;;;;;;;;;;;;;;4958455;28;19930;-89
2023/10/06 12:46:28;;;;;;;;;;;;;;;;;;4960184;28;20009;-89
2023/10/06 12:48:54;;;;;;;;;;;;;;;;;;4961188;28;20453;-88
2023/10/06 12:51:20;;;;;;;;;;;;;;;;;;4957014;28;19926;-85
2023/10/06 12:53:46;;;;;;;;;;;;;;;;;;4942768;28;19932;-88
2023/10/06 12:56:12;;;;;;;;;;;;;;;;;;4921579;28;20397;-90
2023/10/06 12:58:38;;;;;;;;;;;;;;;;;;4942215;28;19921;-89
2023/10/06 13:01:07;;;;;;;;;;;;;;;;;;4942312;28;20194;-88
2023/10/06 13:03:33;;;;;;;;;;;;;;;;;;4958541;28;20393;-90
2023/10/06 13:06:02;;;;;;;;;;;;;;;;;;4944167;28;19941;-87
2023/10/06 13:08:28;;;;;;;;;;;;;;;;;;4938522;28;19925;-87
2023/10/06 13:10:54;;;;;;;;;;;;;;;;;;4959781;28;20372;-89
2023/10/06 13:13:20;;;;;;;;;;;;;;;;;;4940213;28;19926;-91
2023/10/06 13:15:46;;;;;;;;;;;;;;;;;;4941029;28;20009;-80
2023/10/06 13:18:12;;;;;;;;;;;;;;;;;;4957243;28;19926;-83
2023/10/06 13:20:40;;;;;;;;;;;;;;;;;;4941422;28;19922;-91
2023/10/06 13:23:07;;;;;;;;;;;;;;;;;;4925960;28;20132;-88
2023/10/06 13:25:32;;;;;;;;;;;;;;;;;;4940579;28;19933;-82
2023/10/06 13:27:58;;;;;;;;;;;;;;;;;;4961939;28;19952;-91
2023/10/06 13:30:24;;;;;;;;;;;;;;;;;;4942559;28;19929;-81
2023/10/06 13:32:56;;;;;;;;;;;;;;;;;;4960945;28;19969;-87
2023/10/06 13:35:24;;;;;;;;;;;;;;;;;;4941008;28;19933;-79
2023/10/06 13:37:49;;;;;;;;;;;;;;;;;;4943614;28;19930;-85
2023/10/06 13:40:15;;;;;;;;;;;;;;;;;;4942535;28;20364;-93
2023/10/06 13:42:41;;;;;;;;;;;;;;;;;;4963819;28;20369;-90
2023/10/06 13:45:14;;;;;;;;;;;;;;;;;;4947012;28;20000;-91
2023/10/06 13:47:40;;;;;;;;;;;;;;;;;;4958962;28;19941;-87
2023/10/06 13:50:18;;;;;;;;;;;;;;;;;;4928778;28;20227;-90
2023/10/06 13:52:44;;;;;;;;;;;;;;;;;;4928449;28;20389;-87
2023/10/06 13:55:13;;;;;;;;;;;;;;;;;;4945988;28;19922;-92
2023/10/06 13:57:39;;;;;;;;;;;;;;;;;;4962070;28;19984;-88
2023/10/06 14:00:08;;;;;;;;;;;;;;;;;;4962792;28;20389;-91
2023/10/06 14:02:34;;;;;;;;;;;;;;;;;;4952868;28;19930;-91
2023/10/06 14:05:01;;;;;;;;;;;;;;;;;;4940768;28;19985;-88
2023/10/06 14:07:26;;;;;;;;;;;;;;;;;;4940335;28;19926;-90
2023/10/06 14:09:54;;;;;;;;;;;;;;;;;;4941074;28;20389;-93
2023/10/06 14:12:21;;;;;;;;;;;;;;;;;;4924186;28;20024;-90
2023/10/06 14:17:29;;;;;;;;;;;;;;;;;;4939486;28;19936;-82
2023/10/06 14:19:56;;;;;;;;;;;;;;;;;;4945217;28;20202;-84
2023/10/06 14:22:24;;;;;;;;;;;;;;;;;;4955178;28;19926;-91
2023/10/06 14:24:53;;;;;;;;;;;;;;;;;;4937962;28;19926;-82
2023/10/06 14:27:22;;;;;;;;;;;;;;;;;;4935957;28;19922;-84
2023/10/06 14:29:51;;;;;;;;;;;;;;;;;;4958007;28;20041;-84
2023/10/06 14:35:12;;;;;;;;;;;;;;;;;;4938772;28;19929;-88
2023/10/06 14:37:52;;;;;;;;;;;;;;;;;;4941623;28;20444;-87
2023/10/06 14:46:01;;;;;;;;;;;;;;;;;;4937767;28;20456;-83
2023/10/06 14:48:30;;;;;;;;;;;;;;;;;;4947410;28;19922;-84
2023/10/06 14:50:56;;;;;;;;;;;;;;;;;;4942471;28;19928;-88
2023/10/06 14:53:25;;;;;;;;;;;;;;;;;;4956510;28;19925;-92
2023/10/06 14:55:51;;;;;;;;;;;;;;;;;;4956850;28;19929;-93
2023/10/06 14:58:16;;;;;;;;;;;;;;;;;;4941585;28;20259;-84
2023/10/06 15:00:42;;;;;;;;;;;;;;;;;;4938951;28;19930;-93
2023/10/06 15:03:09;;;;;;;;;;;;;;;;;;4938291;28;19926;-86
2023/10/06 15:05:36;;;;;;;;;;;;;;;;;;4938638;28;19930;-87
2023/10/06 15:08:02;;;;;;;;;;;;;;;;;;4954266;28;20022;-84
2023/10/06 15:10:28;;;;;;;;;;;;;;;;;;4937004;28;20009;-92
2023/10/06 15:12:58;;;;;;;;;;;;;;;;;;4959127;28;20405;-83
2023/10/06 15:15:24;;;;;;;;;;;;;;;;;;4954744;28;21024;-83
2023/10/06 15:17:54;;;;;;;;;;;;;;;;;;4958863;28;19989;-82
2023/10/06 15:20:20;;;;;;;;;;;;;;;;;;4952199;28;20397;-92
2023/10/06 15:22:47;;;;;;;;;;;;;;;;;;4958942;28;19933;-89
2023/10/06 15:25:16;;;;;;;;;;;;;;;;;;4936005;28;19933;-90
2023/10/06 15:27:42;;;;;;;;;;;;;;;;;;4935885;28;19957;-84
2023/10/06 15:30:09;;;;;;;;;;;;;;;;;;4957992;28;20008;-85
2023/10/06 15:32:34;;;;;;;;;;;;;;;;;;4932512;28;20271;-87
2023/10/06 15:35:00;;;;;;;;;;;;;;;;;;4924864;28;19997;-81
2023/10/06 15:37:26;;;;;;;;;;;;;;;;;;4937705;28;19933;-85
2023/10/06 15:39:52;;;;;;;;;;;;;;;;;;4938921;28;20009;-86
2023/10/06 15:42:18;;;;;;;;;;;;;;;;;;4957685;28;19953;-85
2023/10/06 15:44:44;;;;;;;;;;;;;;;;;;4946096;28;19926;-91
2023/10/06 15:47:12;;;;;;;;;;;;;;;;;;4957117;28;20048;-87
2023/10/06 15:49:38;;;;;;;;;;;;;;;;;;4919524;28;19973;-80
2023/10/06 15:52:04;;;;;;;;;;;;;;;;;;4938846;28;20016;-89
2023/10/06 15:54:29;;;;;;;;;;;;;;;;;;4931147;28;19933;-87
2023/10/06 15:56:57;;;;;;;;;;;;;;;;;;4951666;28;19934;-93
2023/10/06 15:59:24;;;;;;;;;;;;;;;;;;4950026;28;19930;-87
2023/10/06 16:01:52;;;;;;;;;;;;;;;;;;4940756;28;20008;-90
2023/10/06 16:04:18;;;;;;;;;;;;;;;;;;4944754;28;19926;-88
2023/10/06 16:06:46;;;;;;;;;;;;;;;;;;4943377;28;19926;-92
2023/10/06 16:09:16;;;;;;;;;;;;;;;;;;4964329;28;19949;-86
2023/10/06 16:11:42;;;;;;;;;;;;;;;;;;4940386;28;20174;-90
2023/10/06 16:14:08;;;;;;;;;;;;;;;;;;4960752;28;19932;-87
2023/10/06 16:16:34;;;;;;;;;;;;;;;;;;4937482;28;20707;-87
2023/10/06 16:19:00;;;;;;;;;;;;;;;;;;4944136;28;20008;-92
2023/10/06 16:21:26;;;;;;;;;;;;;;;;;;4940415;28;19926;-93
2023/10/06 16:23:52;;;;;;;;;;;;;;;;;;4942927;28;20370;-93
2023/10/06 16:26:18;;;;;;;;;;;;;;;;;;4941110;28;19941;-90
2023/10/06 16:28:44;;;;;;;;;;;;;;;;;;4941266;28;19981;-92
2023/10/06 16:31:13;;;;;;;;;;;;;;;;;;4959712;28;20067;-84
2023/10/06 16:33:41;;;;;;;;;;;;;;;;;;4938973;28;19929;-85
2023/10/06 16:36:07;;;;;;;;;;;;;;;;;;4963142;28;19921;-81
2023/10/06 16:38:33;;;;;;;;;;;;;;;;;;4958736;28;19945;-87
2023/10/06 16:40:59;;;;;;;;;;;;;;;;;;4978015;28;19933;-81
2023/10/06 16:43:24;;;;;;;;;;;;;;;;;;4975597;28;19931;-88
2023/10/06 16:45:50;;;;;;;;;;;;;;;;;;4974069;28;20027;-87
2023/10/06 16:48:16;;;;;;;;;;;;;;;;;;4961397;28;20153;-90
2023/10/06 16:50:42;;;;;;;;;;;;;;;;;;4975240;28;20377;-84
2023/10/06 16:53:08;;;;;;;;;;;;;;;;;;4960248;28;19932;-88
2023/10/06 16:55:34;;;;;;;;;;;;;;;;;;4972598;28;20028;-88
2023/10/06 16:58:00;;;;;;;;;;;;;;;;;;4960787;28;19936;-82
2023/10/06 17:00:26;;;;;;;;;;;;;;;;;;4957838;28;19928;-87
2023/10/06 17:02:52;;;;;;;;;;;;;;;;;;4944696;28;19930;-86
2023/10/06 17:05:21;;;;;;;;;;;;;;;;;;4942334;28;19926;-89
2023/10/06 17:07:47;;;;;;;;;;;;;;;;;;4958424;28;19922;-86
2023/10/06 17:10:15;;;;;;;;;;;;;;;;;;4960784;28;19930;-86
2023/10/06 17:12:41;;;;;;;;;;;;;;;;;;4957220;28;19933;-86
2023/10/06 17:15:11;;;;;;;;;;;;;;;;;;4960514;28;19922;-91
2023/10/06 17:17:37;;;;;;;;;;;;;;;;;;4960913;28;19929;-88
2023/10/06 17:20:03;;;;;;;;;;;;;;;;;;4965689;28;19997;-93
2023/10/06 17:22:29;;;;;;;;;;;;;;;;;;4962667;28;20020;-82
2023/10/06 17:24:56;;;;;;;;;;;;;;;;;;4964032;28;19922;-85
2023/10/06 17:27:22;;;;;;;;;;;;;;;;;;4980275;28;19929;-93
2023/10/06 17:29:49;;;;;;;;;;;;;;;;;;4979447;28;20459;-83
2023/10/06 17:32:15;;;;;;;;;;;;;;;;;;4981357;28;20029;-89
2023/10/06 17:34:42;;;;;;;;;;;;;;;;;;4952010;28;20704;-87
2023/10/06 17:37:08;;;;;;;;;;;;;;;;;;4942974;28;19930;-85